createdAt,value
2022-11-14T00:01:54.898Z,63.00
2022-11-14T00:04:40.635Z,62.90
2022-11-14T00:07:29.522Z,62.70
2022-11-14T00:10:15.723Z,62.70
2022-11-14T00:13:00.869Z,62.90
2022-11-14T00:15:50.472Z,62.50
2022-11-14T00:18:36.079Z,62.90
2022-11-14T00:21:21.254Z,63.60
2022-11-14T00:24:06.830Z,62.60
2022-11-14T00:26:52.274Z,62.30
2022-11-14T00:29:37.524Z,61.80
2022-11-14T00:32:22.642Z,62.80
2022-11-14T00:35:09.354Z,63.00
2022-11-14T00:37:54.449Z,62.40
2022-11-14T00:40:39.963Z,61.80
2022-11-14T00:43:25.447Z,62.10
2022-11-14T00:46:11.160Z,61.40
2022-11-14T00:48:56.677Z,60.80
2022-11-14T00:51:42.153Z,62.30
2022-11-14T00:54:27.690Z,62.60
2022-11-14T00:57:13.080Z,61.90
2022-11-14T00:59:58.630Z,62.10
2022-11-14T01:02:43.927Z,62.40
2022-11-14T01:05:29.441Z,62.00
2022-11-14T01:08:16.216Z,62.20
2022-11-14T01:11:08.906Z,62.00
2022-11-14T01:13:54.691Z,61.80
2022-11-14T01:16:40.082Z,62.20
2022-11-14T01:19:25.613Z,61.70
2022-11-14T01:22:11.119Z,61.40
2022-11-14T01:24:58.372Z,61.60
2022-11-14T01:27:44.068Z,62.00
2022-11-14T01:30:29.495Z,61.80
2022-11-14T01:33:14.976Z,62.90
2022-11-14T01:36:00.554Z,62.30
2022-11-14T01:38:46.599Z,61.80
2022-11-14T01:41:31.711Z,62.20
2022-11-14T01:44:38.330Z,61.80
2022-11-14T01:47:28.987Z,62.20
2022-11-14T01:50:14.664Z,61.20
2022-11-14T01:52:59.807Z,62.00
2022-11-14T01:55:45.782Z,62.30
2022-11-14T01:58:33.772Z,62.20
2022-11-14T02:01:19.413Z,62.20
2022-11-14T02:04:06.752Z,61.40
2022-11-14T02:06:57.308Z,61.40
2022-11-14T02:09:46.669Z,62.00
2022-11-14T02:12:32.850Z,61.80
2022-11-14T02:15:18.514Z,62.30
2022-11-14T02:18:04.848Z,62.30
2022-11-14T02:20:50.422Z,62.20
2022-11-14T02:23:35.923Z,61.70
2022-11-14T02:26:22.588Z,60.70
2022-11-14T02:29:09.893Z,61.40
2022-11-14T02:31:57.056Z,61.30
2022-11-14T02:34:42.398Z,62.20
2022-11-14T02:37:27.986Z,61.30
2022-11-14T02:40:13.421Z,61.50
2022-11-14T02:42:59.280Z,61.70
2022-11-14T02:45:44.854Z,61.00
2022-11-14T02:48:30.375Z,61.20
2022-11-14T02:51:16.058Z,60.30
2022-11-14T02:54:01.348Z,61.20
2022-11-14T02:56:46.763Z,61.70
2022-11-14T02:59:32.231Z,61.50
2022-11-14T03:02:17.743Z,61.60
2022-11-14T03:05:03.393Z,61.70
2022-11-14T03:07:48.545Z,61.60
2022-11-14T03:10:34.095Z,61.70
2022-11-14T03:13:19.787Z,61.50
2022-11-14T03:16:11.294Z,61.10
2022-11-14T03:18:56.554Z,60.90
2022-11-14T03:21:42.102Z,61.50
2022-11-14T03:24:27.637Z,61.40
2022-11-14T03:27:12.946Z,61.70
2022-11-14T03:29:58.260Z,61.80
2022-11-14T03:32:43.930Z,61.10
2022-11-14T03:35:29.153Z,60.70
2022-11-14T03:38:14.630Z,60.60
2022-11-14T03:41:00.850Z,61.40
2022-11-14T03:43:46.167Z,61.10
2022-11-14T03:46:31.752Z,61.40
2022-11-14T03:49:17.218Z,61.60
2022-11-14T03:52:03.083Z,61.30
2022-11-14T03:54:48.611Z,61.10
2022-11-14T03:57:33.926Z,61.20
2022-11-14T04:00:19.816Z,61.50
2022-11-14T04:03:05.414Z,61.70
2022-11-14T04:05:51.274Z,61.00
2022-11-14T04:08:36.502Z,61.50
2022-11-14T04:11:22.182Z,60.60
2022-11-14T04:14:07.414Z,61.80
2022-11-14T04:16:52.786Z,61.60
2022-11-14T04:19:38.336Z,60.50
2022-11-14T04:22:23.553Z,61.60
2022-11-14T04:25:09.376Z,61.90
2022-11-14T04:27:55.056Z,61.40
2022-11-14T04:30:40.891Z,61.40
2022-11-14T04:33:26.597Z,61.40
2022-11-14T04:36:11.857Z,61.80
2022-11-14T04:38:57.368Z,62.00
2022-11-14T04:41:42.858Z,61.70
2022-11-14T04:44:28.802Z,61.50
2022-11-14T04:47:14.238Z,61.30
2022-11-14T04:49:59.807Z,61.70
2022-11-14T04:52:45.493Z,61.20
2022-11-14T04:55:31.102Z,60.20
2022-11-14T04:58:16.254Z,61.20
2022-11-14T05:01:08.375Z,61.00
2022-11-14T05:03:54.041Z,61.70
2022-11-14T05:06:39.619Z,61.90
2022-11-14T05:09:25.087Z,62.30
2022-11-14T05:12:10.506Z,62.40
2022-11-14T05:14:55.981Z,62.60
2022-11-14T05:17:41.475Z,62.70
2022-11-14T05:20:27.001Z,62.80
2022-11-14T05:23:23.805Z,63.50
2022-11-14T05:26:11.527Z,63.50
2022-11-14T05:28:56.749Z,63.40
2022-11-14T05:31:42.267Z,62.90
2022-11-14T05:34:28.055Z,62.50
2022-11-14T05:37:13.317Z,63.30
2022-11-14T05:39:58.725Z,63.20
2022-11-14T05:42:44.207Z,62.90
2022-11-14T05:45:31.159Z,63.90
2022-11-14T05:48:16.381Z,63.70
2022-11-14T05:51:04.814Z,60.90
2022-11-14T05:53:50.439Z,60.60
2022-11-14T05:56:36.243Z,59.30
2022-11-14T05:59:21.617Z,60.00
2022-11-14T06:02:06.976Z,62.30
2022-11-14T06:04:52.325Z,64.00
2022-11-14T06:07:39.314Z,65.00
2022-11-14T06:10:25.137Z,65.50
2022-11-14T06:13:10.668Z,65.90
2022-11-14T06:16:03.826Z,65.60
2022-11-14T06:18:49.332Z,65.30
2022-11-14T06:21:34.821Z,65.60
2022-11-14T06:24:20.375Z,66.00
2022-11-14T06:27:05.757Z,67.00
2022-11-14T06:29:51.236Z,67.00
2022-11-14T06:32:36.661Z,67.30
2022-11-14T06:35:23.264Z,67.10
2022-11-14T06:38:08.517Z,66.90
2022-11-14T06:41:05.481Z,66.30
2022-11-14T06:43:54.158Z,67.10
2022-11-14T06:46:39.512Z,67.30
2022-11-14T06:49:25.113Z,66.20
2022-11-14T06:52:11.063Z,67.50
2022-11-14T06:54:56.164Z,68.00
2022-11-14T06:57:41.643Z,66.60
2022-11-14T07:00:27.120Z,69.40
2022-11-14T07:03:12.611Z,65.50
2022-11-14T07:05:59.357Z,65.20
2022-11-14T07:08:44.719Z,64.30
2022-11-14T07:11:32.064Z,64.90
2022-11-14T07:14:17.345Z,64.10
2022-11-14T07:17:02.726Z,64.30
2022-11-14T07:19:48.306Z,65.20
2022-11-14T07:22:33.701Z,63.70
2022-11-14T07:25:21.112Z,64.30
2022-11-14T07:28:07.435Z,64.10
2022-11-14T07:30:52.677Z,63.90
2022-11-14T07:33:38.807Z,64.00
2022-11-14T07:36:24.424Z,64.40
2022-11-14T07:39:09.809Z,64.50
2022-11-14T07:41:55.100Z,63.90
2022-11-14T07:44:40.438Z,63.90
2022-11-14T07:47:27.145Z,64.20
2022-11-14T07:50:15.192Z,63.70
2022-11-14T07:53:04.402Z,63.00
2022-11-14T07:55:49.682Z,63.30
2022-11-14T07:58:36.463Z,63.70
2022-11-14T08:01:21.699Z,63.90
2022-11-14T08:04:07.306Z,63.50
2022-11-14T08:06:52.675Z,63.70
2022-11-14T08:09:37.956Z,62.60
2022-11-14T08:12:23.495Z,62.90
2022-11-14T08:15:11.156Z,62.90
2022-11-14T08:18:00.929Z,63.20
2022-11-14T08:20:46.782Z,62.70
2022-11-14T08:23:32.723Z,61.60
2022-11-14T08:26:18.011Z,62.60
2022-11-14T08:29:03.749Z,61.80
2022-11-14T08:31:49.481Z,62.00
2022-11-14T08:34:36.361Z,61.60
2022-11-14T08:37:21.914Z,62.00
2022-11-14T08:40:07.919Z,61.60
2022-11-14T08:42:59.863Z,59.90
2022-11-14T08:45:45.344Z,60.20
2022-11-14T08:48:33.723Z,60.20
2022-11-14T08:51:19.330Z,60.70
2022-11-14T08:54:04.847Z,59.50
2022-11-14T08:56:50.339Z,60.40
2022-11-14T08:59:35.700Z,59.40
2022-11-14T09:02:21.307Z,59.10
2022-11-14T09:05:07.191Z,58.80
2022-11-14T09:07:52.631Z,58.30
2022-11-14T09:10:38.682Z,58.10
2022-11-14T09:13:24.161Z,59.10
2022-11-14T09:16:09.923Z,58.40
2022-11-14T09:18:55.321Z,58.10
2022-11-14T09:21:41.313Z,58.30
2022-11-14T09:24:26.697Z,58.30
2022-11-14T09:27:12.038Z,58.70
2022-11-14T09:29:57.402Z,58.20
2022-11-14T09:32:42.685Z,58.60
2022-11-14T09:35:29.531Z,58.20
2022-11-14T09:38:14.940Z,58.70
2022-11-14T09:41:10.511Z,58.70
2022-11-14T09:44:04.737Z,58.50
2022-11-14T09:46:59.903Z,58.50
2022-11-14T09:49:46.447Z,58.50
2022-11-14T09:52:37.353Z,58.10
2022-11-14T09:55:36.457Z,57.90
2022-11-14T09:58:23.324Z,59.70
2022-11-14T10:01:28.588Z,57.20
2022-11-14T10:04:32.489Z,58.80
2022-11-14T10:07:17.705Z,58.30
2022-11-14T10:10:14.564Z,59.10
2022-11-14T10:13:11.972Z,57.00
2022-11-14T10:16:19.645Z,57.70
2022-11-14T10:19:19.264Z,57.50
2022-11-14T10:22:18.343Z,57.30
2022-11-14T10:25:30.837Z,56.80
2022-11-14T10:28:38.384Z,57.90
2022-11-14T10:31:29.689Z,57.60
2022-11-14T10:34:48.309Z,56.40
2022-11-14T10:37:37.219Z,57.30
2022-11-14T10:40:25.872Z,56.50
2022-11-14T10:43:17.062Z,56.70
2022-11-14T10:46:09.305Z,57.80
2022-11-14T10:48:59.923Z,55.10
2022-11-14T10:51:59.413Z,56.60
2022-11-14T10:54:50.587Z,56.90
2022-11-14T10:57:35.788Z,57.00
2022-11-14T11:00:23.457Z,57.00
2022-11-14T11:03:08.845Z,57.30
2022-11-14T11:06:00.275Z,59.30
2022-11-14T11:09:03.935Z,58.90
2022-11-14T11:11:57.989Z,58.30
2022-11-14T11:14:44.780Z,58.00
2022-11-14T11:17:36.135Z,58.40
2022-11-14T11:20:29.651Z,59.40
2022-11-14T11:23:21.911Z,58.50
2022-11-14T11:26:23.390Z,58.80
2022-11-14T11:29:11.634Z,58.30
2022-11-14T11:31:58.969Z,57.80
2022-11-14T11:34:44.918Z,58.80
2022-11-14T11:37:55.636Z,58.90
2022-11-14T11:40:44.253Z,61.30
2022-11-14T11:43:51.289Z,59.50
2022-11-14T11:46:57.675Z,60.30
2022-11-14T11:49:50.031Z,59.10
2022-11-14T11:52:49.021Z,59.20
2022-11-14T11:55:44.185Z,57.70
2022-11-14T11:58:32.327Z,60.00
2022-11-14T12:01:18.464Z,61.40
2022-11-14T12:04:04.422Z,61.50
2022-11-14T12:07:12.439Z,60.70
2022-11-14T12:10:10.350Z,59.90
2022-11-14T12:13:17.930Z,59.50
2022-11-14T12:16:36.450Z,59.10
2022-11-14T12:19:27.825Z,60.70
2022-11-14T12:22:47.629Z,58.40
2022-11-14T12:26:00.869Z,59.80
2022-11-14T12:29:07.215Z,60.30
2022-11-14T12:32:02.897Z,58.10
2022-11-14T12:34:50.046Z,60.00
2022-11-14T12:37:42.762Z,59.60
2022-11-14T12:40:41.169Z,59.00
2022-11-14T12:43:40.419Z,59.20
2022-11-14T12:46:25.696Z,59.50
2022-11-14T12:49:37.008Z,59.50
2022-11-14T12:52:40.540Z,59.30
2022-11-14T12:55:26.323Z,59.00
2022-11-14T12:58:38.662Z,58.40
2022-11-14T13:01:58.021Z,59.00
2022-11-14T13:04:56.359Z,58.70
2022-11-14T13:08:09.864Z,58.90
2022-11-14T13:10:55.221Z,58.50
2022-11-14T13:14:20.436Z,59.30
2022-11-14T13:17:36.542Z,58.20
2022-11-14T13:20:40.425Z,59.30
2022-11-14T13:23:25.829Z,61.30
2022-11-14T13:26:11.519Z,60.40
2022-11-14T13:28:57.989Z,59.50
2022-11-14T13:31:49.608Z,60.40
2022-11-14T13:34:56.718Z,60.20
2022-11-14T13:38:00.234Z,59.90
2022-11-14T13:41:08.709Z,60.00
2022-11-14T13:44:07.049Z,59.50
2022-11-14T13:47:03.845Z,59.10
2022-11-14T13:49:55.549Z,59.50
2022-11-14T13:52:47.603Z,60.00
2022-11-14T13:55:49.913Z,59.80
2022-11-14T13:58:56.021Z,59.80
2022-11-14T14:02:03.517Z,59.10
2022-11-14T14:05:26.510Z,62.00
2022-11-14T14:08:23.602Z,59.20
2022-11-14T14:11:41.634Z,59.70
2022-11-14T14:14:45.403Z,60.00
2022-11-14T14:17:42.497Z,59.50
2022-11-14T14:20:35.710Z,59.30
2022-11-14T14:23:39.764Z,59.30
2022-11-14T14:27:02.786Z,59.70
2022-11-14T14:30:01.912Z,58.80
2022-11-14T14:33:12.579Z,59.20
2022-11-14T14:35:58.093Z,59.70
2022-11-14T14:38:43.664Z,60.10
2022-11-14T14:41:32.379Z,60.10
2022-11-14T14:44:27.428Z,60.30
2022-11-14T14:47:17.112Z,59.00
2022-11-14T14:50:06.844Z,59.80
2022-11-14T14:53:02.977Z,60.20
2022-11-14T14:56:18.414Z,59.50
2022-11-14T14:59:19.259Z,59.70
2022-11-14T15:02:11.001Z,60.90
2022-11-14T15:04:59.235Z,60.10
2022-11-14T15:07:46.407Z,60.20
2022-11-14T15:10:32.440Z,59.70
2022-11-14T15:13:18.844Z,59.70
2022-11-14T15:16:06.736Z,60.00
2022-11-14T15:18:54.765Z,59.50
2022-11-14T15:21:40.209Z,60.00
2022-11-14T15:24:25.662Z,59.80
2022-11-14T15:27:19.488Z,59.70
2022-11-14T15:30:07.673Z,59.00
2022-11-14T15:32:58.580Z,59.30
2022-11-14T15:35:43.924Z,58.70
2022-11-14T15:38:43.526Z,59.60
2022-11-14T15:41:31.812Z,59.60
2022-11-14T15:44:33.797Z,59.30
2022-11-14T15:47:39.554Z,59.60
2022-11-14T15:50:32.191Z,59.90
2022-11-14T15:53:23.694Z,60.60
2022-11-14T15:56:12.936Z,59.60
2022-11-14T15:58:58.847Z,59.90
2022-11-14T16:01:46.375Z,59.90
2022-11-14T16:04:35.546Z,59.50
2022-11-14T16:07:21.949Z,59.70
2022-11-14T16:10:28.120Z,59.10
2022-11-14T16:13:13.290Z,59.30
2022-11-14T16:15:59.124Z,60.00
2022-11-14T16:18:44.477Z,59.80
2022-11-14T16:21:30.150Z,59.60
2022-11-14T16:24:21.834Z,58.90
2022-11-14T16:27:07.492Z,59.20
2022-11-14T16:29:53.705Z,59.00
2022-11-14T16:32:40.609Z,59.10
2022-11-14T16:35:27.314Z,60.00
2022-11-14T16:38:13.788Z,59.40
2022-11-14T16:41:01.896Z,59.10
2022-11-14T16:43:47.128Z,59.20
2022-11-14T16:46:32.601Z,59.40
2022-11-14T16:49:19.593Z,60.50
2022-11-14T16:52:08.506Z,59.70
2022-11-14T16:54:53.950Z,59.50
2022-11-14T16:57:40.032Z,59.40
2022-11-14T17:00:25.603Z,59.60
2022-11-14T17:03:10.999Z,59.70
2022-11-14T17:05:56.807Z,59.50
2022-11-14T17:08:42.030Z,58.50
2022-11-14T17:11:28.359Z,59.30
2022-11-14T17:14:13.657Z,59.50
2022-11-14T17:17:02.488Z,59.40
2022-11-14T17:19:47.977Z,59.40
2022-11-14T17:22:33.617Z,59.90
2022-11-14T17:25:19.193Z,59.70
2022-11-14T17:28:04.868Z,59.20
2022-11-14T17:30:50.161Z,59.30
2022-11-14T17:33:36.407Z,59.60
2022-11-14T17:36:23.012Z,59.10
2022-11-14T17:39:08.462Z,59.20
2022-11-14T17:41:54.086Z,59.00
2022-11-14T17:44:39.688Z,57.90
2022-11-14T17:47:25.035Z,57.60
2022-11-14T17:50:10.841Z,56.80
2022-11-14T17:52:56.122Z,57.10
2022-11-14T17:55:41.516Z,57.50
2022-11-14T17:58:31.598Z,57.00
2022-11-14T18:01:23.369Z,56.80
2022-11-14T18:04:08.801Z,58.20
2022-11-14T18:06:54.726Z,56.60
2022-11-14T18:09:41.357Z,57.70
2022-11-14T18:12:26.825Z,57.30
2022-11-14T18:15:12.712Z,56.70
2022-11-14T18:17:58.539Z,57.20
2022-11-14T18:20:43.994Z,57.10
2022-11-14T18:23:29.449Z,57.60
2022-11-14T18:26:17.207Z,56.80
2022-11-14T18:29:02.936Z,57.40
2022-11-14T18:31:48.568Z,57.10
2022-11-14T18:34:36.875Z,58.10
2022-11-14T18:37:23.166Z,59.30
2022-11-14T18:40:16.322Z,58.40
2022-11-14T18:43:02.623Z,59.40
2022-11-14T18:45:48.250Z,59.70
2022-11-14T18:48:33.696Z,59.70
2022-11-14T18:51:21.628Z,59.60
2022-11-14T18:54:09.277Z,60.40
2022-11-14T18:56:54.539Z,59.90
2022-11-14T18:59:40.094Z,59.80
2022-11-14T19:02:25.596Z,59.80
2022-11-14T19:05:11.001Z,60.10
2022-11-14T19:07:56.638Z,59.60
2022-11-14T19:10:41.746Z,60.70
2022-11-14T19:13:27.643Z,59.90
2022-11-14T19:16:13.196Z,59.20
2022-11-14T19:18:59.394Z,60.10
2022-11-14T19:21:44.678Z,60.00
2022-11-14T19:24:30.359Z,60.00
2022-11-14T19:27:16.188Z,60.20
2022-11-14T19:30:01.350Z,60.30
2022-11-14T19:32:46.944Z,59.60
2022-11-14T19:35:32.377Z,60.70
2022-11-14T19:38:17.716Z,60.70
2022-11-14T19:41:17.725Z,61.00
2022-11-14T19:44:03.123Z,60.70
2022-11-14T19:46:48.662Z,61.10
2022-11-14T19:49:34.274Z,60.70
2022-11-14T19:52:19.598Z,60.80
2022-11-14T19:55:05.243Z,60.40
2022-11-14T19:57:50.501Z,59.10
2022-11-14T20:00:35.785Z,59.50
2022-11-14T20:03:21.074Z,59.20
2022-11-14T20:06:23.352Z,59.20
2022-11-14T20:09:10.400Z,59.80
2022-11-14T20:11:55.672Z,59.80
2022-11-14T20:14:41.249Z,60.40
2022-11-14T20:17:26.748Z,60.40
2022-11-14T20:20:12.368Z,60.70
2022-11-14T20:22:57.722Z,60.60
2022-11-14T20:25:43.643Z,61.30
2022-11-14T20:28:29.476Z,61.40
2022-11-14T20:31:23.829Z,61.40
2022-11-14T20:34:11.671Z,61.70
2022-11-14T20:37:10.271Z,61.40
2022-11-14T20:39:56.558Z,60.70
2022-11-14T20:42:42.054Z,61.00
2022-11-14T20:45:27.999Z,61.40
2022-11-14T20:48:13.429Z,61.30
2022-11-14T20:51:06.419Z,61.40
2022-11-14T20:53:54.521Z,61.20
2022-11-14T20:56:39.953Z,61.30
2022-11-14T20:59:25.329Z,61.20
2022-11-14T21:02:12.503Z,60.90
2022-11-14T21:04:58.221Z,61.10
2022-11-14T21:07:43.431Z,61.20
2022-11-14T21:10:46.995Z,61.10
2022-11-14T21:13:53.883Z,61.20
2022-11-14T21:16:40.154Z,61.30
2022-11-14T21:19:26.169Z,61.40
2022-11-14T21:22:11.429Z,61.20
2022-11-14T21:24:56.770Z,61.60
2022-11-14T21:27:42.386Z,61.60
2022-11-14T21:30:31.958Z,61.60
2022-11-14T21:33:17.617Z,61.50
2022-11-14T21:36:30.261Z,61.50
2022-11-14T21:39:16.831Z,61.10
2022-11-14T21:42:03.305Z,61.50
2022-11-14T21:44:48.914Z,61.30
2022-11-14T21:47:34.579Z,61.40
2022-11-14T21:50:20.155Z,61.50
2022-11-14T21:53:15.853Z,61.60
2022-11-14T21:56:12.911Z,61.40
2022-11-14T21:59:21.370Z,61.50
2022-11-14T22:02:29.596Z,61.30
2022-11-14T22:05:15.186Z,61.70
2022-11-14T22:08:00.658Z,61.50
2022-11-14T22:10:46.046Z,61.40
2022-11-14T22:13:31.872Z,61.70
2022-11-14T22:16:19.543Z,61.40
2022-11-14T22:19:05.778Z,60.60
2022-11-14T22:21:51.528Z,60.70
2022-11-14T22:24:37.139Z,61.00
2022-11-14T22:27:22.522Z,61.40
2022-11-14T22:30:11.394Z,60.90
2022-11-14T22:32:59.913Z,60.90
2022-11-14T22:35:45.178Z,60.70
2022-11-14T22:38:32.317Z,60.40
2022-11-14T22:41:32.576Z,61.00
2022-11-14T22:44:18.599Z,61.30
2022-11-14T22:47:04.177Z,61.60
2022-11-14T22:49:49.638Z,61.90
2022-11-14T22:52:35.132Z,61.60
2022-11-14T22:55:20.677Z,61.70
2022-11-14T22:58:06.125Z,61.80
2022-11-14T23:00:53.358Z,61.90
2022-11-14T23:03:39.587Z,62.00
2022-11-14T23:06:26.343Z,61.70
2022-11-14T23:09:11.682Z,61.80
2022-11-14T23:11:56.753Z,61.90
2022-11-14T23:14:42.011Z,61.70
2022-11-14T23:17:27.696Z,62.00
2022-11-14T23:20:16.453Z,62.10
2022-11-14T23:23:03.012Z,62.40
2022-11-14T23:25:48.269Z,62.20
2022-11-14T23:28:34.088Z,61.90
2022-11-14T23:31:19.531Z,61.70
2022-11-14T23:34:05.011Z,61.60
2022-11-14T23:36:50.518Z,62.30
2022-11-14T23:39:36.050Z,62.40
2022-11-14T23:42:21.683Z,62.30
2022-11-14T23:45:07.470Z,62.50
2022-11-14T23:47:52.914Z,62.40
2022-11-14T23:50:38.347Z,62.40
2022-11-14T23:53:24.048Z,62.40
2022-11-14T23:56:13.216Z,62.80
2022-11-14T23:58:58.697Z,62.30
